sensor_id;sensor_type;location;lat;lon;timestamp;pressure;altitude;pressure_sealevel;temperature;humidity
49585;BME280;35491;49.142;9.210;2023-12-20T12:44:16;100102.34;;;7.91;61.48
49585;BME280;35491;49.142;9.210;2023-12-20T12:45:22;100111.31;;;7.79;61.71
49585;BME280;35491;49.142;9.210;2023-12-20T12:46:24;100101.28;;;7.71;62.13
49585;BME280;35491;49.142;9.210;2023-12-20T12:47:28;100101.22;;;7.61;62.19
49585;BME280;35491;49.142;9.210;2023-12-20T12:48:28;100102.94;;;7.40;62.73
49585;BME280;35491;49.142;9.210;2023-12-20T12:49:32;100109.22;;;7.39;63.29
49585;BME280;35491;49.142;9.210;2023-12-20T12:50:33;100112.09;;;7.58;62.85
49585;BME280;35491;49.142;9.210;2023-12-20T12:51:36;100096.84;;;7.72;62.49
49585;BME280;35491;49.142;9.210;2023-12-20T12:52:37;100097.59;;;7.95;61.77
49585;BME280;35491;49.142;9.210;2023-12-20T12:53:37;100095.09;;;7.93;61.99
49585;BME280;35491;49.142;9.210;2023-12-20T12:54:41;100092.19;;;7.85;62.37
49585;BME280;35491;49.142;9.210;2023-12-20T12:55:42;100096.63;;;7.96;62.37
49585;BME280;35491;49.142;9.210;2023-12-20T12:56:46;100100.81;;;8.10;61.83
49585;BME280;35491;49.142;9.210;2023-12-20T12:57:47;100089.88;;;8.13;61.87
49585;BME280;35491;49.142;9.210;2023-12-20T12:58:51;100092.94;;;7.76;62.21
49585;BME280;35491;49.142;9.210;2023-12-20T12:59:54;100102.50;;;7.78;62.55
49585;BME280;35491;49.142;9.210;2023-12-20T13:00:58;100096.53;;;7.86;62.19
49585;BME280;35491;49.142;9.210;2023-12-20T13:01:59;100090.72;;;7.48;63.28
49585;BME280;35491;49.142;9.210;2023-12-20T13:03:02;100108.09;;;7.53;63.37
49585;BME280;35491;49.142;9.210;2023-12-20T13:04:04;100104.09;;;7.58;63.45
49585;BME280;35491;49.142;9.210;2023-12-20T13:05:10;100116.72;;;7.45;63.86
49585;BME280;35491;49.142;9.210;2023-12-20T13:06:11;100092.63;;;7.58;63.52
49585;BME280;35491;49.142;9.210;2023-12-20T13:07:14;100115.84;;;7.67;63.66
49585;BME280;35491;49.142;9.210;2023-12-20T13:08:15;100108.44;;;7.71;63.86
49585;BME280;35491;49.142;9.210;2023-12-20T13:09:19;100109.41;;;7.70;64.35
49585;BME280;35491;49.142;9.210;2023-12-20T13:10:19;100110.31;;;7.36;65.17
49585;BME280;35491;49.142;9.210;2023-12-20T13:11:20;100101.09;;;7.52;65.23
49585;BME280;35491;49.142;9.210;2023-12-20T13:12:23;100107.38;;;7.62;64.95
49585;BME280;35491;49.142;9.210;2023-12-20T13:13:24;100103.88;;;7.50;65.54
49585;BME280;35491;49.142;9.210;2023-12-20T13:14:24;100093.84;;;7.42;66.01
49585;BME280;35491;49.142;9.210;2023-12-20T13:15:30;100100.03;;;7.54;65.97
49585;BME280;35491;49.142;9.210;2023-12-20T13:16:31;100097.31;;;7.65;65.78
49585;BME280;35491;49.142;9.210;2023-12-20T13:17:34;100098.25;;;7.32;66.80
49585;BME280;35491;49.142;9.210;2023-12-20T13:18:35;100089.53;;;7.41;66.82
49585;BME280;35491;49.142;9.210;2023-12-20T13:19:42;100091.78;;;7.57;66.40
49585;BME280;35491;49.142;9.210;2023-12-20T13:20:43;100099.44;;;7.28;66.92
49585;BME280;35491;49.142;9.210;2023-12-20T13:21:47;100088.09;;;7.03;67.39
49585;BME280;35491;49.142;9.210;2023-12-20T13:22:49;100084.94;;;7.09;67.03
49585;BME280;35491;49.142;9.210;2023-12-20T13:23:52;100086.38;;;7.13;66.68
49585;BME280;35491;49.142;9.210;2023-12-20T13:24:54;100084.09;;;6.86;67.38
49585;BME280;35491;49.142;9.210;2023-12-20T13:25:55;100093.16;;;6.95;66.96
49585;BME280;35491;49.142;9.210;2023-12-20T13:26:58;100109.72;;;6.98;66.71
49585;BME280;35491;49.142;9.210;2023-12-20T13:27:58;100108.28;;;7.17;66.32
49585;BME280;35491;49.142;9.210;2023-12-20T13:29:02;100098.94;;;7.34;65.88
49585;BME280;35491;49.142;9.210;2023-12-20T13:30:04;100105.84;;;7.37;65.55
49585;BME280;35491;49.142;9.210;2023-12-20T13:31:10;100096.88;;;7.38;65.55
49585;BME280;35491;49.142;9.210;2023-12-20T13:32:11;100105.34;;;7.31;65.86
49585;BME280;35491;49.142;9.210;2023-12-20T13:33:15;100098.63;;;7.16;65.91
49585;BME280;35491;49.142;9.210;2023-12-20T13:34:15;100111.19;;;7.25;65.75
49585;BME280;35491;49.142;9.210;2023-12-20T13:35:20;100107.78;;;7.34;65.61
49585;BME280;35491;49.142;9.210;2023-12-20T13:36:21;100101.50;;;7.01;66.10
49585;BME280;35491;49.142;9.210;2023-12-20T13:37:26;100102.09;;;7.05;66.08
49585;BME280;35491;49.142;9.210;2023-12-20T13:38:27;100114.06;;;6.88;66.59
49585;BME280;35491;49.142;9.210;2023-12-20T13:39:30;100106.94;;;7.00;66.42
49585;BME280;35491;49.142;9.210;2023-12-20T13:40:32;100101.28;;;7.16;66.08
49585;BME280;35491;49.142;9.210;2023-12-20T13:41:33;100104.16;;;7.01;66.66
49585;BME280;35491;49.142;9.210;2023-12-20T13:42:36;100104.63;;;6.84;67.27
49585;BME280;35491;49.142;9.210;2023-12-20T13:43:37;100106.69;;;6.80;67.49
49585;BME280;35491;49.142;9.210;2023-12-20T13:44:40;100095.31;;;6.67;67.82
49585;BME280;35491;49.142;9.210;2023-12-20T13:45:41;100096.66;;;6.84;67.53
49585;BME280;35491;49.142;9.210;2023-12-20T13:46:47;100091.84;;;6.78;67.59
49585;BME280;35491;49.142;9.210;2023-12-20T13:47:49;100094.59;;;6.76;67.82
49585;BME280;35491;49.142;9.210;2023-12-20T13:48:53;100096.53;;;6.63;67.94
49585;BME280;35491;49.142;9.210;2023-12-20T13:49:53;100090.13;;;6.65;68.33
49585;BME280;35491;49.142;9.210;2023-12-20T13:50:57;100096.28;;;6.77;67.68
49585;BME280;35491;49.142;9.210;2023-12-20T13:51:58;100085.06;;;6.96;67.14
49585;BME280;35491;49.142;9.210;2023-12-20T13:53:04;100095.00;;;7.06;66.97
49585;BME280;35491;49.142;9.210;2023-12-20T13:54:05;100087.94;;;6.82;67.42
49585;BME280;35491;49.142;9.210;2023-12-20T13:55:11;100081.69;;;6.94;67.42
49585;BME280;35491;49.142;9.210;2023-12-20T13:56:11;100081.94;;;7.14;66.81
49585;BME280;35491;49.142;9.210;2023-12-20T13:57:15;100078.78;;;7.20;66.68
49585;BME280;35491;49.142;9.210;2023-12-20T13:58:15;100071.75;;;7.30;66.46
49585;BME280;35491;49.142;9.210;2023-12-20T13:59:20;100070.06;;;7.18;66.82
49585;BME280;35491;49.142;9.210;2023-12-20T14:00:20;100064.75;;;7.18;66.81
49585;BME280;35491;49.142;9.210;2023-12-20T14:01:24;100051.59;;;7.05;67.40
49585;BME280;35491;49.142;9.210;2023-12-20T14:02:27;100051.13;;;6.66;68.35
49585;BME280;35491;49.142;9.210;2023-12-20T14:03:30;100063.41;;;6.67;68.87
49585;BME280;35491;49.142;9.210;2023-12-20T14:04:31;100062.81;;;6.63;69.09
49585;BME280;35491;49.142;9.210;2023-12-20T14:05:35;100059.69;;;6.81;68.77
49585;BME280;35491;49.142;9.210;2023-12-20T14:06:35;100063.81;;;6.96;68.04
49585;BME280;35491;49.142;9.210;2023-12-20T14:07:39;100056.56;;;6.76;68.63
49585;BME280;35491;49.142;9.210;2023-12-20T14:08:39;100056.78;;;6.72;69.44
49585;BME280;35491;49.142;9.210;2023-12-20T14:09:42;100058.94;;;6.56;70.00
49585;BME280;35491;49.142;9.210;2023-12-20T14:10:45;100052.28;;;6.28;71.63
49585;BME280;35491;49.142;9.210;2023-12-20T14:11:48;100055.97;;;6.25;71.95
49585;BME280;35491;49.142;9.210;2023-12-20T14:12:49;100055.44;;;6.44;71.49
49585;BME280;35491;49.142;9.210;2023-12-20T14:13:50;100055.88;;;6.38;71.90
49585;BME280;35491;49.142;9.210;2023-12-20T14:14:58;100052.41;;;6.37;72.20
49585;BME280;35491;49.142;9.210;2023-12-20T14:15:59;100046.47;;;6.34;72.04
49585;BME280;35491;49.142;9.210;2023-12-20T14:17:04;100047.34;;;6.46;71.89
49585;BME280;35491;49.142;9.210;2023-12-20T14:18:09;100035.28;;;6.53;71.55
49585;BME280;35491;49.142;9.210;2023-12-20T14:19:15;100045.06;;;6.52;71.74
49585;BME280;35491;49.142;9.210;2023-12-20T14:20:15;100037.31;;;6.38;72.56
49585;BME280;35491;49.142;9.210;2023-12-20T14:21:16;100041.19;;;6.45;72.23
49585;BME280;35491;49.142;9.210;2023-12-20T14:22:20;100030.34;;;6.60;71.68
49585;BME280;35491;49.142;9.210;2023-12-20T14:23:21;100038.53;;;6.45;72.32
49585;BME280;35491;49.142;9.210;2023-12-20T14:24:23;100037.78;;;6.32;72.36
49585;BME280;35491;49.142;9.210;2023-12-20T14:25:27;100033.69;;;6.39;71.94
49585;BME280;35491;49.142;9.210;2023-12-20T14:26:34;100044.22;;;6.40;72.52
49585;BME280;35491;49.142;9.210;2023-12-20T14:27:37;100035.47;;;6.27;72.75
49585;BME280;35491;49.142;9.210;2023-12-20T14:28:38;100034.88;;;6.23;72.53
49585;BME280;35491;49.142;9.210;2023-12-20T14:29:41;100044.19;;;6.29;72.56
49585;BME280;35491;49.142;9.210;2023-12-20T14:30:43;100043.84;;;6.45;72.34
49585;BME280;35491;49.142;9.210;2023-12-20T14:31:43;100041.66;;;6.39;72.38
49585;BME280;35491;49.142;9.210;2023-12-20T14:32:47;100031.91;;;6.51;71.87
49585;BME280;35491;49.142;9.210;2023-12-20T14:33:50;100033.34;;;6.55;71.59
49585;BME280;35491;49.142;9.210;2023-12-20T14:34:54;100039.75;;;6.52;71.66
49585;BME280;35491;49.142;9.210;2023-12-20T14:35:56;100027.56;;;6.61;71.59
49585;BME280;35491;49.142;9.210;2023-12-20T14:36:59;100029.34;;;6.49;71.95
49585;BME280;35491;49.142;9.210;2023-12-20T14:38:00;100026.81;;;6.36;71.45
49585;BME280;35491;49.142;9.210;2023-12-20T14:39:04;100028.72;;;6.34;71.26
49585;BME280;35491;49.142;9.210;2023-12-20T14:40:05;100028.84;;;6.33;71.27
49585;BME280;35491;49.142;9.210;2023-12-20T14:41:06;100024.16;;;6.36;70.86
49585;BME280;35491;49.142;9.210;2023-12-20T14:42:09;100032.84;;;6.38;70.87
49585;BME280;35491;49.142;9.210;2023-12-20T14:43:13;100028.53;;;6.49;70.91
49585;BME280;35491;49.142;9.210;2023-12-20T14:44:17;100018.34;;;6.43;71.09
49585;BME280;35491;49.142;9.210;2023-12-20T14:45:18;100017.41;;;6.44;70.96
49585;BME280;35491;49.142;9.210;2023-12-20T14:46:20;100023.19;;;6.37;71.28
49585;BME280;35491;49.142;9.210;2023-12-20T14:47:23;100014.00;;;6.30;71.10
49585;BME280;35491;49.142;9.210;2023-12-20T14:48:25;100015.00;;;6.40;71.12
49585;BME280;35491;49.142;9.210;2023-12-20T14:49:34;100018.59;;;6.28;71.36
49585;BME280;35491;49.142;9.210;2023-12-20T14:50:35;100004.13;;;6.44;70.99
49585;BME280;35491;49.142;9.210;2023-12-20T14:51:43;100014.00;;;6.30;71.17
49585;BME280;35491;49.142;9.210;2023-12-20T14:52:44;100005.81;;;6.45;70.83
49585;BME280;35491;49.142;9.210;2023-12-20T14:53:47;100005.59;;;6.48;70.68
49585;BME280;35491;49.142;9.210;2023-12-20T14:54:48;100008.22;;;6.36;70.88
49585;BME280;35491;49.142;9.210;2023-12-20T14:55:53;100020.53;;;6.37;70.88
49585;BME280;35491;49.142;9.210;2023-12-20T14:56:54;100017.16;;;6.35;70.98
49585;BME280;35491;49.142;9.210;2023-12-20T14:57:57;100025.34;;;6.21;71.06
49585;BME280;35491;49.142;9.210;2023-12-20T14:59:01;100032.63;;;6.42;70.81
49585;BME280;35491;49.142;9.210;2023-12-20T15:00:05;100030.81;;;6.53;70.25
49585;BME280;35491;49.142;9.210;2023-12-20T15:01:06;100024.16;;;6.36;70.73
49585;BME280;35491;49.142;9.210;2023-12-20T15:02:09;100034.28;;;6.31;70.53
49585;BME280;35491;49.142;9.210;2023-12-20T15:03:10;100030.56;;;6.45;70.44
49585;BME280;35491;49.142;9.210;2023-12-20T15:04:16;100041.06;;;6.47;70.18
49585;BME280;35491;49.142;9.210;2023-12-20T15:05:20;100028.53;;;6.49;69.94
49585;BME280;35491;49.142;9.210;2023-12-20T15:06:21;100032.03;;;6.61;69.92
49585;BME280;35491;49.142;9.210;2023-12-20T15:07:25;100029.84;;;6.43;70.22
49585;BME280;35491;49.142;9.210;2023-12-20T15:10:03;100028.97;;;6.31;70.67
49585;BME280;35491;49.142;9.210;2023-12-20T15:11:06;100030.56;;;6.34;70.73
49585;BME280;35491;49.142;9.210;2023-12-20T15:12:07;100024.63;;;6.30;70.61
49585;BME280;35491;49.142;9.210;2023-12-20T15:13:10;100022.72;;;6.32;70.77
49585;BME280;35491;49.142;9.210;2023-12-20T15:14:12;100015.34;;;6.59;70.33
49585;BME280;35491;49.142;9.210;2023-12-20T15:15:20;100017.16;;;6.47;70.27
49585;BME280;35491;49.142;9.210;2023-12-20T15:16:21;100004.72;;;6.47;70.35
49585;BME280;35491;49.142;9.210;2023-12-20T15:17:24;100022.00;;;6.42;70.27
49585;BME280;35491;49.142;9.210;2023-12-20T15:18:25;100026.84;;;6.59;69.78
49585;BME280;35491;49.142;9.210;2023-12-20T15:19:30;100029.53;;;6.70;69.56
49585;BME280;35491;49.142;9.210;2023-12-20T15:20:34;100027.78;;;6.81;69.22
49585;BME280;35491;49.142;9.210;2023-12-20T15:21:37;100026.81;;;6.48;69.92
49585;BME280;35491;49.142;9.210;2023-12-20T15:22:42;100033.22;;;6.45;69.84
49585;BME280;35491;49.142;9.210;2023-12-20T15:23:45;100035.03;;;6.45;70.04
49585;BME280;35491;49.142;9.210;2023-12-20T15:24:53;100030.19;;;6.38;70.33
49585;BME280;35491;49.142;9.210;2023-12-20T15:26:02;100020.91;;;6.44;70.28
49585;BME280;35491;49.142;9.210;2023-12-20T15:27:05;100025.59;;;6.52;69.66
49585;BME280;35491;49.142;9.210;2023-12-20T15:28:30;100018.63;;;6.51;69.53
49585;BME280;35491;49.142;9.210;2023-12-20T15:29:35;100008.69;;;6.30;70.35
49585;BME280;35491;49.142;9.210;2023-12-20T15:31:04;100013.50;;;6.25;70.77
49585;BME280;35491;49.142;9.210;2023-12-20T15:32:16;100015.09;;;6.28;70.45
49585;BME280;35491;49.142;9.210;2023-12-20T15:33:26;100008.09;;;6.27;70.42
